sensor_id;sensor_type;location;lat;lon;timestamp;P1;durP1;ratioP1;P2;durP2;ratioP2
46729;SDS011;32476;50.002;11.854;2022-07-30T00:00:47;1.87;;;1.63;;
46729;SDS011;32476;50.002;11.854;2022-07-30T00:03:15;5.43;;;2.17;;
46729;SDS011;32476;50.002;11.854;2022-07-30T00:05:41;2.30;;;2.10;;
46729;SDS011;32476;50.002;11.854;2022-07-30T00:08:07;10.03;;;2.53;;
46729;SDS011;32476;50.002;11.854;2022-07-30T00:10:35;2.73;;;2.37;;
46729;SDS011;32476;50.002;11.854;2022-07-30T00:13:00;2.83;;;2.40;;
46729;SDS011;32476;50.002;11.854;2022-07-30T00:15:26;2.50;;;2.30;;
46729;SDS011;32476;50.002;11.854;2022-07-30T00:17:54;6.17;;;2.77;;
46729;SDS011;32476;50.002;11.854;2022-07-30T00:20:20;4.30;;;2.70;;
46729;SDS011;32476;50.002;11.854;2022-07-30T00:22:46;2.23;;;2.00;;
46729;SDS011;32476;50.002;11.854;2022-07-30T00:25:16;5.00;;;2.20;;
46729;SDS011;32476;50.002;11.854;2022-07-30T00:27:42;2.43;;;2.00;;
46729;SDS011;32476;50.002;11.854;2022-07-30T00:30:08;3.63;;;2.00;;
46729;SDS011;32476;50.002;11.854;2022-07-30T00:32:37;4.43;;;1.70;;
46729;SDS011;32476;50.002;11.854;2022-07-30T00:35:03;4.87;;;1.97;;
46729;SDS011;32476;50.002;11.854;2022-07-30T00:37:30;4.27;;;2.30;;
46729;SDS011;32476;50.002;11.854;2022-07-30T00:39:57;2.90;;;2.20;;
46729;SDS011;32476;50.002;11.854;2022-07-30T00:42:23;3.23;;;2.20;;
46729;SDS011;32476;50.002;11.854;2022-07-30T00:45:08;2.37;;;2.00;;
46729;SDS011;32476;50.002;11.854;2022-07-30T00:47:35;2.43;;;1.70;;
46729;SDS011;32476;50.002;11.854;2022-07-30T00:50:02;2.03;;;1.83;;
46729;SDS011;32476;50.002;11.854;2022-07-30T00:52:33;2.70;;;2.20;;
46729;SDS011;32476;50.002;11.854;2022-07-30T00:55:02;2.83;;;2.53;;
46729;SDS011;32476;50.002;11.854;2022-07-30T00:57:30;17.90;;;2.30;;
46729;SDS011;32476;50.002;11.854;2022-07-30T00:59:58;1999.90;;;999.90;;
46729;SDS011;32476;50.002;11.854;2022-07-30T01:02:24;1999.90;;;999.90;;
46729;SDS011;32476;50.002;11.854;2022-07-30T01:04:50;339.20;;;41.50;;
46729;SDS011;32476;50.002;11.854;2022-07-30T01:07:17;2.20;;;1.80;;
46729;SDS011;32476;50.002;11.854;2022-07-30T01:09:43;6.47;;;1.30;;
46729;SDS011;32476;50.002;11.854;2022-07-30T01:12:09;2.10;;;1.60;;
46729;SDS011;32476;50.002;11.854;2022-07-30T01:14:38;2.13;;;1.93;;
46729;SDS011;32476;50.002;11.854;2022-07-30T01:17:04;4.83;;;2.40;;
46729;SDS011;32476;50.002;11.854;2022-07-30T01:19:32;4.50;;;2.07;;
46729;SDS011;32476;50.002;11.854;2022-07-30T01:22:16;2.80;;;1.97;;
46729;SDS011;32476;50.002;11.854;2022-07-30T01:24:55;3.37;;;2.50;;
46729;SDS011;32476;50.002;11.854;2022-07-30T01:27:30;2.80;;;2.53;;
46729;SDS011;32476;50.002;11.854;2022-07-30T01:30:05;1.87;;;1.73;;
46729;SDS011;32476;50.002;11.854;2022-07-30T01:32:35;4.20;;;2.67;;
46729;SDS011;32476;50.002;11.854;2022-07-30T01:35:06;7.37;;;2.87;;
46729;SDS011;32476;50.002;11.854;2022-07-30T01:37:37;4.03;;;2.53;;
46729;SDS011;32476;50.002;11.854;2022-07-30T01:40:04;1999.90;;;999.90;;
46729;SDS011;32476;50.002;11.854;2022-07-30T01:42:31;1999.90;;;999.90;;
46729;SDS011;32476;50.002;11.854;2022-07-30T01:45:00;1415.07;;;696.40;;
46729;SDS011;32476;50.002;11.854;2022-07-30T01:47:27;65.37;;;47.80;;
46729;SDS011;32476;50.002;11.854;2022-07-30T01:49:57;1999.90;;;999.90;;
46729;SDS011;32476;50.002;11.854;2022-07-30T01:52:26;1999.90;;;999.90;;
46729;SDS011;32476;50.002;11.854;2022-07-30T01:54:55;1999.90;;;999.90;;
46729;SDS011;32476;50.002;11.854;2022-07-30T01:57:23;1999.90;;;999.90;;
46729;SDS011;32476;50.002;11.854;2022-07-30T01:59:55;1999.90;;;999.90;;
46729;SDS011;32476;50.002;11.854;2022-07-30T02:02:26;48.77;;;45.57;;
46729;SDS011;32476;50.002;11.854;2022-07-30T02:04:54;206.03;;;164.73;;
46729;SDS011;32476;50.002;11.854;2022-07-30T02:07:26;1999.90;;;999.90;;
46729;SDS011;32476;50.002;11.854;2022-07-30T02:10:15;14.57;;;13.63;;
46729;SDS011;32476;50.002;11.854;2022-07-30T02:12:48;14.93;;;14.23;;
46729;SDS011;32476;50.002;11.854;2022-07-30T02:15:24;1999.90;;;999.90;;
46729;SDS011;32476;50.002;11.854;2022-07-30T02:18:00;50.13;;;23.93;;
46729;SDS011;32476;50.002;11.854;2022-07-30T02:20:54;3.07;;;2.97;;
46729;SDS011;32476;50.002;11.854;2022-07-30T02:23:26;1.50;;;1.50;;
46729;SDS011;32476;50.002;11.854;2022-07-30T02:25:55;3.23;;;3.13;;
46729;SDS011;32476;50.002;11.854;2022-07-30T02:28:24;3.07;;;2.97;;
46729;SDS011;32476;50.002;11.854;2022-07-30T02:30:57;1.80;;;1.80;;
46729;SDS011;32476;50.002;11.854;2022-07-30T02:33:28;4.57;;;4.33;;
46729;SDS011;32476;50.002;11.854;2022-07-30T02:35:58;2.33;;;2.23;;
46729;SDS011;32476;50.002;11.854;2022-07-30T02:38:27;2.93;;;2.83;;
46729;SDS011;32476;50.002;11.854;2022-07-30T02:40:56;2.67;;;2.57;;
46729;SDS011;32476;50.002;11.854;2022-07-30T02:43:25;806.00;;;418.10;;
46729;SDS011;32476;50.002;11.854;2022-07-30T02:45:53;1999.90;;;999.90;;
46729;SDS011;32476;50.002;11.854;2022-07-30T02:48:20;18.20;;;17.30;;
46729;SDS011;32476;50.002;11.854;2022-07-30T02:50:49;694.00;;;356.63;;
46729;SDS011;32476;50.002;11.854;2022-07-30T02:53:19;0.00;;;0.00;;
46729;SDS011;32476;50.002;11.854;2022-07-30T02:55:46;0.10;;;0.10;;
46729;SDS011;32476;50.002;11.854;2022-07-30T02:58:14;0.00;;;0.00;;
46729;SDS011;32476;50.002;11.854;2022-07-30T03:00:47;0.00;;;0.00;;
46729;SDS011;32476;50.002;11.854;2022-07-30T03:03:15;0.00;;;0.00;;
46729;SDS011;32476;50.002;11.854;2022-07-30T03:05:43;0.00;;;0.00;;
46729;SDS011;32476;50.002;11.854;2022-07-30T03:08:12;0.00;;;0.00;;
46729;SDS011;32476;50.002;11.854;2022-07-30T03:10:40;0.00;;;0.00;;
46729;SDS011;32476;50.002;11.854;2022-07-30T03:13:08;0.00;;;0.00;;
46729;SDS011;32476;50.002;11.854;2022-07-30T03:15:41;0.00;;;0.00;;
46729;SDS011;32476;50.002;11.854;2022-07-30T03:18:14;0.00;;;0.00;;
46729;SDS011;32476;50.002;11.854;2022-07-30T03:20:52;0.00;;;0.00;;
46729;SDS011;32476;50.002;11.854;2022-07-30T03:23:20;0.00;;;0.00;;
46729;SDS011;32476;50.002;11.854;2022-07-30T03:25:51;0.00;;;0.00;;
46729;SDS011;32476;50.002;11.854;2022-07-30T03:28:23;0.00;;;0.00;;
46729;SDS011;32476;50.002;11.854;2022-07-30T03:30:52;0.00;;;0.00;;
46729;SDS011;32476;50.002;11.854;2022-07-30T03:33:18;0.00;;;0.00;;
46729;SDS011;32476;50.002;11.854;2022-07-30T03:35:45;0.00;;;0.00;;
46729;SDS011;32476;50.002;11.854;2022-07-30T03:38:15;1999.90;;;999.90;;
46729;SDS011;32476;50.002;11.854;2022-07-30T03:40:42;1999.90;;;999.90;;
46729;SDS011;32476;50.002;11.854;2022-07-30T03:43:09;1999.90;;;999.90;;
46729;SDS011;32476;50.002;11.854;2022-07-30T03:45:40;1999.90;;;999.90;;
46729;SDS011;32476;50.002;11.854;2022-07-30T03:48:08;1999.90;;;999.90;;
46729;SDS011;32476;50.002;11.854;2022-07-30T03:50:37;1999.90;;;999.90;;
46729;SDS011;32476;50.002;11.854;2022-07-30T03:53:07;1999.90;;;999.90;;
46729;SDS011;32476;50.002;11.854;2022-07-30T03:55:35;1999.90;;;999.90;;
46729;SDS011;32476;50.002;11.854;2022-07-30T03:58:02;1999.90;;;999.90;;
46729;SDS011;32476;50.002;11.854;2022-07-30T04:00:29;1999.90;;;999.90;;
46729;SDS011;32476;50.002;11.854;2022-07-30T04:02:56;1999.90;;;999.90;;
46729;SDS011;32476;50.002;11.854;2022-07-30T04:05:22;1999.90;;;999.90;;
46729;SDS011;32476;50.002;11.854;2022-07-30T04:07:50;1999.90;;;999.90;;
46729;SDS011;32476;50.002;11.854;2022-07-30T04:10:16;1999.90;;;999.90;;
46729;SDS011;32476;50.002;11.854;2022-07-30T04:12:42;1999.90;;;999.90;;
46729;SDS011;32476;50.002;11.854;2022-07-30T04:15:09;1999.90;;;999.90;;
46729;SDS011;32476;50.002;11.854;2022-07-30T04:17:48;1454.80;;;708.53;;
46729;SDS011;32476;50.002;11.854;2022-07-30T04:20:21;1999.90;;;999.90;;
46729;SDS011;32476;50.002;11.854;2022-07-30T04:22:50;1999.90;;;999.90;;
46729;SDS011;32476;50.002;11.854;2022-07-30T04:25:17;1999.90;;;999.90;;
46729;SDS011;32476;50.002;11.854;2022-07-30T04:27:47;973.50;;;129.37;;
46729;SDS011;32476;50.002;11.854;2022-07-30T04:30:14;1999.90;;;999.90;;
46729;SDS011;32476;50.002;11.854;2022-07-30T04:32:40;857.70;;;375.47;;
46729;SDS011;32476;50.002;11.854;2022-07-30T04:35:08;633.50;;;183.37;;
46729;SDS011;32476;50.002;11.854;2022-07-30T04:37:34;188.60;;;83.60;;
46729;SDS011;32476;50.002;11.854;2022-07-30T04:40:00;1999.90;;;999.90;;
46729;SDS011;32476;50.002;11.854;2022-07-30T04:42:28;7.60;;;6.67;;
46729;SDS011;32476;50.002;11.854;2022-07-30T04:44:55;567.10;;;360.30;;
46729;SDS011;32476;50.002;11.854;2022-07-30T04:47:22;524.93;;;99.53;;
46729;SDS011;32476;50.002;11.854;2022-07-30T04:49:50;10.50;;;8.20;;
46729;SDS011;32476;50.002;11.854;2022-07-30T04:52:18;1364.57;;;678.10;;
46729;SDS011;32476;50.002;11.854;2022-07-30T04:54:47;1999.90;;;999.90;;
46729;SDS011;32476;50.002;11.854;2022-07-30T04:57:21;1999.90;;;999.90;;
46729;SDS011;32476;50.002;11.854;2022-07-30T04:59:50;394.53;;;85.97;;
46729;SDS011;32476;50.002;11.854;2022-07-30T05:02:16;156.00;;;19.13;;
46729;SDS011;32476;50.002;11.854;2022-07-30T05:04:46;8.30;;;6.80;;
46729;SDS011;32476;50.002;11.854;2022-07-30T05:07:14;6.93;;;6.23;;
46729;SDS011;32476;50.002;11.854;2022-07-30T05:09:42;8.20;;;6.10;;
46729;SDS011;32476;50.002;11.854;2022-07-30T05:12:09;1999.90;;;999.90;;
46729;SDS011;32476;50.002;11.854;2022-07-30T05:14:35;1999.90;;;999.90;;
46729;SDS011;32476;50.002;11.854;2022-07-30T05:17:01;1999.90;;;999.90;;
46729;SDS011;32476;50.002;11.854;2022-07-30T05:19:29;1999.90;;;999.90;;
46729;SDS011;32476;50.002;11.854;2022-07-30T05:21:55;1999.90;;;999.90;;
46729;SDS011;32476;50.002;11.854;2022-07-30T05:24:21;1999.90;;;999.90;;
46729;SDS011;32476;50.002;11.854;2022-07-30T05:26:48;7.00;;;6.33;;
46729;SDS011;32476;50.002;11.854;2022-07-30T05:29:14;92.33;;;40.90;;
46729;SDS011;32476;50.002;11.854;2022-07-30T05:31:40;7.50;;;5.33;;
46729;SDS011;32476;50.002;11.854;2022-07-30T05:34:08;5.53;;;5.03;;
46729;SDS011;32476;50.002;11.854;2022-07-30T05:36:34;9.13;;;5.97;;
46729;SDS011;32476;50.002;11.854;2022-07-30T05:39:00;9.07;;;6.27;;
46729;SDS011;32476;50.002;11.854;2022-07-30T05:41:27;5.70;;;5.00;;
46729;SDS011;32476;50.002;11.854;2022-07-30T05:43:53;7.90;;;6.87;;
46729;SDS011;32476;50.002;11.854;2022-07-30T05:46:21;1999.90;;;999.90;;
46729;SDS011;32476;50.002;11.854;2022-07-30T05:48:49;8.00;;;7.20;;
46729;SDS011;32476;50.002;11.854;2022-07-30T05:51:15;7.70;;;6.73;;
46729;SDS011;32476;50.002;11.854;2022-07-30T05:53:42;9.03;;;6.87;;
46729;SDS011;32476;50.002;11.854;2022-07-30T05:56:10;8.57;;;7.30;;
46729;SDS011;32476;50.002;11.854;2022-07-30T05:58:36;9.60;;;7.57;;
46729;SDS011;32476;50.002;11.854;2022-07-30T06:01:02;7.80;;;7.00;;
46729;SDS011;32476;50.002;11.854;2022-07-30T06:03:30;8.87;;;6.93;;
46729;SDS011;32476;50.002;11.854;2022-07-30T06:05:56;11.97;;;7.60;;
46729;SDS011;32476;50.002;11.854;2022-07-30T06:08:22;8.60;;;7.30;;
46729;SDS011;32476;50.002;11.854;2022-07-30T06:10:49;8.00;;;7.20;;
46729;SDS011;32476;50.002;11.854;2022-07-30T06:13:15;9.27;;;7.53;;
46729;SDS011;32476;50.002;11.854;2022-07-30T06:15:41;12.27;;;9.80;;
46729;SDS011;32476;50.002;11.854;2022-07-30T06:18:08;10.43;;;7.60;;
46729;SDS011;32476;50.002;11.854;2022-07-30T06:20:34;10.67;;;7.50;;
46729;SDS011;32476;50.002;11.854;2022-07-30T06:23:00;15.60;;;7.60;;
46729;SDS011;32476;50.002;11.854;2022-07-30T06:25:27;8.90;;;7.50;;
46729;SDS011;32476;50.002;11.854;2022-07-30T06:27:53;10.80;;;6.77;;
46729;SDS011;32476;50.002;11.854;2022-07-30T06:30:19;9.00;;;7.53;;
46729;SDS011;32476;50.002;11.854;2022-07-30T06:32:47;13.83;;;7.00;;
46729;SDS011;32476;50.002;11.854;2022-07-30T06:35:13;1999.90;;;999.90;;
46729;SDS011;32476;50.002;11.854;2022-07-30T06:37:39;49.60;;;46.40;;
46729;SDS011;32476;50.002;11.854;2022-07-30T06:40:08;49.67;;;46.73;;
46729;SDS011;32476;50.002;11.854;2022-07-30T06:42:34;38.67;;;36.17;;
46729;SDS011;32476;50.002;11.854;2022-07-30T06:45:00;47.07;;;44.13;;
46729;SDS011;32476;50.002;11.854;2022-07-30T06:47:28;40.90;;;38.23;;
46729;SDS011;32476;50.002;11.854;2022-07-30T06:49:55;41.20;;;38.73;;
46729;SDS011;32476;50.002;11.854;2022-07-30T06:52:21;59.17;;;54.20;;
46729;SDS011;32476;50.002;11.854;2022-07-30T06:54:49;49.30;;;46.50;;
46729;SDS011;32476;50.002;11.854;2022-07-30T06:57:15;62.57;;;58.97;;
46729;SDS011;32476;50.002;11.854;2022-07-30T06:59:41;65.80;;;62.03;;
46729;SDS011;32476;50.002;11.854;2022-07-30T07:02:09;74.27;;;69.00;;
46729;SDS011;32476;50.002;11.854;2022-07-30T07:04:35;75.97;;;71.60;;
46729;SDS011;32476;50.002;11.854;2022-07-30T07:07:01;62.73;;;58.97;;
46729;SDS011;32476;50.002;11.854;2022-07-30T07:09:29;68.43;;;64.80;;
46729;SDS011;32476;50.002;11.854;2022-07-30T07:11:55;67.83;;;63.27;;
46729;SDS011;32476;50.002;11.854;2022-07-30T07:14:21;67.60;;;63.73;;
46729;SDS011;32476;50.002;11.854;2022-07-30T07:16:48;32.03;;;29.87;;
46729;SDS011;32476;50.002;11.854;2022-07-30T07:19:14;28.90;;;26.80;;
46729;SDS011;32476;50.002;11.854;2022-07-30T07:21:40;43.50;;;28.20;;
46729;SDS011;32476;50.002;11.854;2022-07-30T07:24:08;26.93;;;25.03;;
46729;SDS011;32476;50.002;11.854;2022-07-30T07:26:34;29.45;;;27.33;;
46729;SDS011;32476;50.002;11.854;2022-07-30T07:29:00;24.85;;;22.52;;
46729;SDS011;32476;50.002;11.854;2022-07-30T07:31:28;23.38;;;21.88;;
46729;SDS011;32476;50.002;11.854;2022-07-30T07:33:55;23.63;;;22.17;;
46729;SDS011;32476;50.002;11.854;2022-07-30T07:36:21;27.88;;;25.55;;
46729;SDS011;32476;50.002;11.854;2022-07-30T07:38:49;18.70;;;16.67;;
46729;SDS011;32476;50.002;11.854;2022-07-30T07:41:15;22.23;;;20.52;;
46729;SDS011;32476;50.002;11.854;2022-07-30T07:43:41;22.45;;;20.90;;
46729;SDS011;32476;50.002;11.854;2022-07-30T07:46:08;17.02;;;15.73;;
46729;SDS011;32476;50.002;11.854;2022-07-30T07:48:34;18.52;;;17.23;;
46729;SDS011;32476;50.002;11.854;2022-07-30T07:51:00;27.02;;;17.70;;
46729;SDS011;32476;50.002;11.854;2022-07-30T07:53:28;18.05;;;16.33;;
46729;SDS011;32476;50.002;11.854;2022-07-30T07:55:54;16.77;;;15.52;;
46729;SDS011;32476;50.002;11.854;2022-07-30T07:58:20;14.98;;;13.82;;
46729;SDS011;32476;50.002;11.854;2022-07-30T08:00:47;16.00;;;14.52;;
46729;SDS011;32476;50.002;11.854;2022-07-30T08:03:14;15.00;;;14.00;;
46729;SDS011;32476;50.002;11.854;2022-07-30T08:05:40;15.20;;;13.85;;
46729;SDS011;32476;50.002;11.854;2022-07-30T08:08:07;14.98;;;13.77;;
46729;SDS011;32476;50.002;11.854;2022-07-30T08:10:33;13.82;;;12.82;;
46729;SDS011;32476;50.002;11.854;2022-07-30T08:12:59;19.38;;;12.88;;
46729;SDS011;32476;50.002;11.854;2022-07-30T08:15:29;138.32;;;27.58;;
46729;SDS011;32476;50.002;11.854;2022-07-30T08:17:55;1999.90;;;999.90;;
46729;SDS011;32476;50.002;11.854;2022-07-30T08:20:22;1999.90;;;999.90;;
46729;SDS011;32476;50.002;11.854;2022-07-30T08:22:52;1999.90;;;999.90;;
46729;SDS011;32476;50.002;11.854;2022-07-30T08:25:18;1999.90;;;999.90;;
46729;SDS011;32476;50.002;11.854;2022-07-30T08:27:44;1999.90;;;999.90;;
46729;SDS011;32476;50.002;11.854;2022-07-30T08:30:12;1999.90;;;999.90;;
46729;SDS011;32476;50.002;11.854;2022-07-30T08:32:38;1999.90;;;999.90;;
46729;SDS011;32476;50.002;11.854;2022-07-30T08:35:04;1999.90;;;999.90;;
46729;SDS011;32476;50.002;11.854;2022-07-30T08:37:33;1999.90;;;999.90;;
46729;SDS011;32476;50.002;11.854;2022-07-30T08:39:59;1999.90;;;999.90;;
46729;SDS011;32476;50.002;11.854;2022-07-30T08:42:25;1999.90;;;999.90;;
46729;SDS011;32476;50.002;11.854;2022-07-30T08:44:53;1999.90;;;999.90;;
46729;SDS011;32476;50.002;11.854;2022-07-30T08:47:22;1999.90;;;999.90;;
46729;SDS011;32476;50.002;11.854;2022-07-30T08:49:59;1999.90;;;999.90;;
46729;SDS011;32476;50.002;11.854;2022-07-30T08:52:33;1999.90;;;999.90;;
46729;SDS011;32476;50.002;11.854;2022-07-30T08:55:03;1999.90;;;999.90;;
46729;SDS011;32476;50.002;11.854;2022-07-30T08:57:30;1999.90;;;999.90;;
46729;SDS011;32476;50.002;11.854;2022-07-30T08:59:59;1999.90;;;999.90;;
46729;SDS011;32476;50.002;11.854;2022-07-30T09:02:29;1999.90;;;999.90;;
46729;SDS011;32476;50.002;11.854;2022-07-30T09:04:55;1999.90;;;999.90;;
46729;SDS011;32476;50.002;11.854;2022-07-30T09:07:22;1999.90;;;999.90;;
46729;SDS011;32476;50.002;11.854;2022-07-30T09:09:49;1999.90;;;999.90;;
46729;SDS011;32476;50.002;11.854;2022-07-30T09:15:06;1999.90;;;999.90;;
46729;SDS011;32476;50.002;11.854;2022-07-30T09:20:19;1999.90;;;999.90;;
46729;SDS011;32476;50.002;11.854;2022-07-30T09:22:53;1999.90;;;999.90;;
46729;SDS011;32476;50.002;11.854;2022-07-30T09:25:40;6.00;;;5.70;;
46729;SDS011;32476;50.002;11.854;2022-07-30T09:28:09;6.72;;;5.45;;
46729;SDS011;32476;50.002;11.854;2022-07-30T09:30:47;5.13;;;4.68;;
46729;SDS011;32476;50.002;11.854;2022-07-30T09:33:34;9.32;;;5.03;;
46729;SDS011;32476;50.002;11.854;2022-07-30T09:36:09;6.85;;;5.22;;
46729;SDS011;32476;50.002;11.854;2022-07-30T09:38:41;6.55;;;4.85;;
46729;SDS011;32476;50.002;11.854;2022-07-30T09:41:17;74.10;;;8.00;;
46729;SDS011;32476;50.002;11.854;2022-07-30T09:43:57;4.93;;;4.35;;
46729;SDS011;32476;50.002;11.854;2022-07-30T09:46:42;8.43;;;5.05;;
46729;SDS011;32476;50.002;11.854;2022-07-30T09:49:15;226.75;;;25.20;;
46729;SDS011;32476;50.002;11.854;2022-07-30T09:51:48;149.13;;;13.23;;
46729;SDS011;32476;50.002;11.854;2022-07-30T09:54:15;711.10;;;55.53;;
46729;SDS011;32476;50.002;11.854;2022-07-30T09:56:42;870.40;;;88.45;;
46729;SDS011;32476;50.002;11.854;2022-07-30T09:59:24;52.42;;;6.05;;
46729;SDS011;32476;50.002;11.854;2022-07-30T10:01:52;23.83;;;5.05;;
46729;SDS011;32476;50.002;11.854;2022-07-30T10:04:25;761.13;;;117.63;;
46729;SDS011;32476;50.002;11.854;2022-07-30T10:06:53;95.95;;;11.68;;
46729;SDS011;32476;50.002;11.854;2022-07-30T10:09:29;4.38;;;3.97;;
46729;SDS011;32476;50.002;11.854;2022-07-30T10:11:59;376.90;;;32.35;;
46729;SDS011;32476;50.002;11.854;2022-07-30T10:14:30;0.08;;;0.08;;
46729;SDS011;32476;50.002;11.854;2022-07-30T10:16:59;0.00;;;0.00;;
46729;SDS011;32476;50.002;11.854;2022-07-30T10:19:26;0.00;;;0.00;;
46729;SDS011;32476;50.002;11.854;2022-07-30T10:21:54;0.00;;;0.00;;
46729;SDS011;32476;50.002;11.854;2022-07-30T10:24:23;0.00;;;0.00;;
46729;SDS011;32476;50.002;11.854;2022-07-30T10:26:50;21.73;;;17.33;;
46729;SDS011;32476;50.002;11.854;2022-07-30T10:29:19;0.00;;;0.00;;
46729;SDS011;32476;50.002;11.854;2022-07-30T10:31:46;0.10;;;0.10;;
46729;SDS011;32476;50.002;11.854;2022-07-30T10:34:15;0.00;;;0.00;;
46729;SDS011;32476;50.002;11.854;2022-07-30T10:36:51;0.00;;;0.00;;
46729;SDS011;32476;50.002;11.854;2022-07-30T10:39:33;0.00;;;0.00;;
46729;SDS011;32476;50.002;11.854;2022-07-30T10:48:21;0.00;;;0.00;;
46729;SDS011;32476;50.002;11.854;2022-07-30T10:50:52;0.00;;;0.00;;
46729;SDS011;32476;50.002;11.854;2022-07-30T10:56:09;0.00;;;0.00;;
46729;SDS011;32476;50.002;11.854;2022-07-30T11:04:21;0.00;;;0.00;;
46729;SDS011;32476;50.002;11.854;2022-07-30T11:06:48;0.00;;;0.00;;
46729;SDS011;32476;50.002;11.854;2022-07-30T11:12:07;0.00;;;0.00;;
46729;SDS011;32476;50.002;11.854;2022-07-30T11:17:11;0.00;;;0.00;;
46729;SDS011;32476;50.002;11.854;2022-07-30T11:22:29;0.00;;;0.00;;
46729;SDS011;32476;50.002;11.854;2022-07-30T11:25:12;0.00;;;0.00;;
46729;SDS011;32476;50.002;11.854;2022-07-30T11:27:57;0.10;;;0.10;;
46729;SDS011;32476;50.002;11.854;2022-07-30T11:30:30;0.52;;;0.52;;
46729;SDS011;32476;50.002;11.854;2022-07-30T11:35:34;4.13;;;3.95;;
46729;SDS011;32476;50.002;11.854;2022-07-30T11:38:02;0.00;;;0.00;;
46729;SDS011;32476;50.002;11.854;2022-07-30T11:40:30;0.00;;;0.00;;
46729;SDS011;32476;50.002;11.854;2022-07-30T11:46:09;14.73;;;13.57;;
46729;SDS011;32476;50.002;11.854;2022-07-30T11:49:03;0.25;;;0.25;;
46729;SDS011;32476;50.002;11.854;2022-07-30T11:51:42;0.20;;;0.20;;
46729;SDS011;32476;50.002;11.854;2022-07-30T11:54:11;0.35;;;0.35;;
46729;SDS011;32476;50.002;11.854;2022-07-30T11:56:48;0.50;;;0.50;;
46729;SDS011;32476;50.002;11.854;2022-07-30T11:59:17;0.10;;;0.10;;
46729;SDS011;32476;50.002;11.854;2022-07-30T12:01:47;0.00;;;0.00;;
46729;SDS011;32476;50.002;11.854;2022-07-30T12:04:15;0.20;;;0.20;;
46729;SDS011;32476;50.002;11.854;2022-07-30T12:06:44;0.10;;;0.10;;
46729;SDS011;32476;50.002;11.854;2022-07-30T12:09:11;0.03;;;0.03;;
46729;SDS011;32476;50.002;11.854;2022-07-30T12:11:37;0.00;;;0.00;;
46729;SDS011;32476;50.002;11.854;2022-07-30T12:14:05;0.00;;;0.00;;
46729;SDS011;32476;50.002;11.854;2022-07-30T12:16:31;0.10;;;0.10;;
46729;SDS011;32476;50.002;11.854;2022-07-30T12:19:04;0.10;;;0.10;;
46729;SDS011;32476;50.002;11.854;2022-07-30T12:21:32;0.00;;;0.00;;
46729;SDS011;32476;50.002;11.854;2022-07-30T12:23:59;0.00;;;0.00;;
46729;SDS011;32476;50.002;11.854;2022-07-30T12:26:28;0.10;;;0.10;;
46729;SDS011;32476;50.002;11.854;2022-07-30T12:29:00;0.10;;;0.10;;
46729;SDS011;32476;50.002;11.854;2022-07-30T12:31:30;0.00;;;0.00;;
46729;SDS011;32476;50.002;11.854;2022-07-30T12:34:02;1.37;;;1.37;;
46729;SDS011;32476;50.002;11.854;2022-07-30T12:36:31;0.10;;;0.10;;
46729;SDS011;32476;50.002;11.854;2022-07-30T12:39:00;0.10;;;0.10;;
46729;SDS011;32476;50.002;11.854;2022-07-30T12:41:39;0.10;;;0.10;;
46729;SDS011;32476;50.002;11.854;2022-07-30T12:44:32;0.10;;;0.10;;
46729;SDS011;32476;50.002;11.854;2022-07-30T12:47:17;0.20;;;0.20;;
46729;SDS011;32476;50.002;11.854;2022-07-30T12:49:52;0.20;;;0.20;;
46729;SDS011;32476;50.002;11.854;2022-07-30T12:52:24;0.10;;;0.10;;
46729;SDS011;32476;50.002;11.854;2022-07-30T12:54:56;0.20;;;0.20;;
46729;SDS011;32476;50.002;11.854;2022-07-30T13:00:21;0.20;;;0.20;;
46729;SDS011;32476;50.002;11.854;2022-07-30T13:02:57;0.00;;;0.00;;
46729;SDS011;32476;50.002;11.854;2022-07-30T13:05:45;0.00;;;0.00;;
46729;SDS011;32476;50.002;11.854;2022-07-30T13:08:16;0.00;;;0.00;;
46729;SDS011;32476;50.002;11.854;2022-07-30T13:13:26;0.10;;;0.10;;
46729;SDS011;32476;50.002;11.854;2022-07-30T13:18:30;0.00;;;0.00;;
46729;SDS011;32476;50.002;11.854;2022-07-30T13:20:58;0.10;;;0.10;;
46729;SDS011;32476;50.002;11.854;2022-07-30T13:23:26;0.00;;;0.00;;
46729;SDS011;32476;50.002;11.854;2022-07-30T13:25:54;0.00;;;0.00;;
46729;SDS011;32476;50.002;11.854;2022-07-30T13:28:21;0.00;;;0.00;;
46729;SDS011;32476;50.002;11.854;2022-07-30T13:30:47;0.50;;;0.50;;
46729;SDS011;32476;50.002;11.854;2022-07-30T13:33:15;0.40;;;0.40;;
46729;SDS011;32476;50.002;11.854;2022-07-30T13:35:41;0.40;;;0.40;;
46729;SDS011;32476;50.002;11.854;2022-07-30T13:38:08;5.78;;;5.47;;
46729;SDS011;32476;50.002;11.854;2022-07-30T13:40:37;0.30;;;0.30;;
46729;SDS011;32476;50.002;11.854;2022-07-30T13:43:04;2.47;;;2.28;;
46729;SDS011;32476;50.002;11.854;2022-07-30T13:45:30;0.40;;;0.40;;
46729;SDS011;32476;50.002;11.854;2022-07-30T13:47:58;1999.90;;;999.90;;
46729;SDS011;32476;50.002;11.854;2022-07-30T13:50:24;1999.90;;;999.90;;
46729;SDS011;32476;50.002;11.854;2022-07-30T13:52:50;1999.90;;;999.90;;
46729;SDS011;32476;50.002;11.854;2022-07-30T13:55:18;523.50;;;271.17;;
46729;SDS011;32476;50.002;11.854;2022-07-30T13:57:43;1999.90;;;999.90;;
46729;SDS011;32476;50.002;11.854;2022-07-30T14:00:10;1999.90;;;999.90;;
46729;SDS011;32476;50.002;11.854;2022-07-30T14:02:38;1999.90;;;999.90;;
46729;SDS011;32476;50.002;11.854;2022-07-30T14:05:04;1999.90;;;999.90;;
46729;SDS011;32476;50.002;11.854;2022-07-30T14:07:31;7.22;;;6.88;;
46729;SDS011;32476;50.002;11.854;2022-07-30T14:10:01;4.10;;;3.97;;
46729;SDS011;32476;50.002;11.854;2022-07-30T14:12:28;58.10;;;54.70;;
46729;SDS011;32476;50.002;11.854;2022-07-30T14:14:54;8.70;;;8.30;;
46729;SDS011;32476;50.002;11.854;2022-07-30T14:17:22;7.38;;;7.07;;
46729;SDS011;32476;50.002;11.854;2022-07-30T14:19:48;29.80;;;28.40;;
46729;SDS011;32476;50.002;11.854;2022-07-30T14:22:15;7.07;;;6.78;;
46729;SDS011;32476;50.002;11.854;2022-07-30T14:24:43;29.50;;;28.10;;
46729;SDS011;32476;50.002;11.854;2022-07-30T14:27:09;5.22;;;5.03;;
46729;SDS011;32476;50.002;11.854;2022-07-30T14:29:34;6.25;;;6.00;;
46729;SDS011;32476;50.002;11.854;2022-07-30T14:32:02;4.90;;;4.70;;
46729;SDS011;32476;50.002;11.854;2022-07-30T14:34:28;2.10;;;2.08;;
46729;SDS011;32476;50.002;11.854;2022-07-30T14:36:54;97.38;;;54.15;;
46729;SDS011;32476;50.002;11.854;2022-07-30T14:39:22;0.00;;;0.00;;
46729;SDS011;32476;50.002;11.854;2022-07-30T14:41:48;29.08;;;27.10;;
46729;SDS011;32476;50.002;11.854;2022-07-30T14:44:14;1.30;;;1.30;;
46729;SDS011;32476;50.002;11.854;2022-07-30T14:46:42;1.10;;;1.10;;
46729;SDS011;32476;50.002;11.854;2022-07-30T14:49:08;1.13;;;1.13;;
46729;SDS011;32476;50.002;11.854;2022-07-30T14:51:34;0.70;;;0.70;;
46729;SDS011;32476;50.002;11.854;2022-07-30T14:54:03;2.03;;;1.92;;
46729;SDS011;32476;50.002;11.854;2022-07-30T14:56:29;0.60;;;0.60;;
46729;SDS011;32476;50.002;11.854;2022-07-30T14:58:55;3.90;;;3.80;;
46729;SDS011;32476;50.002;11.854;2022-07-30T15:01:22;3.17;;;3.08;;
46729;SDS011;32476;50.002;11.854;2022-07-30T15:03:48;7.30;;;4.85;;
46729;SDS011;32476;50.002;11.854;2022-07-30T15:06:14;143.55;;;67.68;;